createdAt,value
2023-01-17T00:00:47.995Z,966.09
2023-01-17T00:01:47.957Z,966.11
2023-01-17T00:02:48.001Z,966.00
2023-01-17T00:03:47.954Z,966.11
2023-01-17T00:04:47.934Z,966.15
2023-01-17T00:05:47.916Z,966.06
2023-01-17T00:06:47.926Z,966.19
2023-01-17T00:07:47.900Z,966.15
2023-01-17T00:08:47.877Z,966.23
2023-01-17T00:09:47.876Z,966.16
2023-01-17T00:10:47.859Z,966.21
2023-01-17T00:11:47.844Z,966.20
2023-01-17T00:12:47.861Z,966.14
2023-01-17T00:13:47.837Z,966.28
2023-01-17T00:14:47.813Z,966.26
2023-01-17T00:15:47.835Z,966.27
2023-01-17T00:16:47.786Z,966.36
2023-01-17T00:17:47.799Z,966.37
2023-01-17T00:18:47.796Z,966.34
2023-01-17T00:19:47.756Z,966.38
2023-01-17T00:20:47.747Z,966.33
2023-01-17T00:21:47.745Z,966.39
2023-01-17T00:22:47.725Z,966.37
2023-01-17T00:23:47.714Z,966.49
2023-01-17T00:24:47.746Z,966.38
2023-01-17T00:25:47.693Z,966.45
2023-01-17T00:26:47.676Z,966.44
2023-01-17T00:27:47.673Z,966.49
2023-01-17T00:28:47.686Z,966.51
2023-01-17T00:29:47.644Z,966.60
2023-01-17T00:30:47.653Z,966.65
2023-01-17T00:31:47.690Z,966.64
2023-01-17T00:32:47.616Z,966.81
2023-01-17T00:33:47.607Z,966.81
2023-01-17T00:34:47.604Z,966.84
2023-01-17T00:35:47.604Z,966.92
2023-01-17T00:36:47.564Z,966.94
2023-01-17T00:37:47.562Z,966.96
2023-01-17T00:38:47.543Z,967.01
2023-01-17T00:39:47.563Z,967.07
2023-01-17T00:40:47.546Z,967.09
2023-01-17T00:41:47.525Z,967.04
2023-01-17T00:42:47.514Z,967.04
2023-01-17T00:43:47.492Z,967.08
2023-01-17T00:44:47.485Z,967.13
2023-01-17T00:45:47.462Z,967.16
2023-01-17T00:46:47.481Z,967.14
2023-01-17T00:47:47.446Z,967.11
2023-01-17T00:48:47.432Z,967.24
2023-01-17T00:49:47.431Z,967.21
2023-01-17T00:50:47.411Z,967.19
2023-01-17T00:51:47.409Z,967.13
2023-01-17T00:52:47.414Z,967.18
2023-01-17T00:53:47.407Z,967.22
2023-01-17T00:54:47.372Z,967.25
2023-01-17T00:55:47.364Z,967.27
2023-01-17T00:56:47.341Z,967.28
2023-01-17T00:57:47.362Z,967.35
2023-01-17T00:58:47.322Z,967.37
2023-01-17T00:59:47.313Z,967.40
2023-01-17T01:00:47.383Z,967.45
2023-01-17T01:01:47.453Z,967.43
2023-01-17T01:02:47.341Z,967.47
2023-01-17T01:03:47.309Z,967.41
2023-01-17T01:04:47.261Z,967.45
2023-01-17T01:05:47.251Z,967.46
2023-01-17T01:06:47.233Z,967.36
2023-01-17T01:07:47.244Z,967.37
2023-01-17T01:08:47.243Z,967.48
2023-01-17T01:09:47.201Z,967.48
2023-01-17T01:10:47.191Z,967.48
2023-01-17T01:11:47.189Z,967.45
2023-01-17T01:12:47.169Z,967.49
2023-01-17T01:13:47.166Z,967.59
2023-01-17T01:14:47.160Z,967.52
2023-01-17T01:15:47.140Z,967.64
2023-01-17T01:16:47.129Z,967.52
2023-01-17T01:17:47.122Z,967.58
2023-01-17T01:18:47.111Z,967.58
2023-01-17T01:19:47.118Z,967.63
2023-01-17T01:20:47.085Z,967.59
2023-01-17T01:21:47.081Z,967.65
2023-01-17T01:22:47.061Z,967.69
2023-01-17T01:23:47.052Z,967.67
2023-01-17T01:24:47.045Z,967.69
2023-01-17T01:25:47.050Z,967.73
2023-01-17T01:26:47.018Z,967.73
2023-01-17T01:27:47.012Z,967.68
2023-01-17T01:28:46.997Z,967.72
2023-01-17T01:29:46.991Z,967.75
2023-01-17T01:30:47.008Z,967.70
2023-01-17T01:31:47.028Z,967.74
2023-01-17T01:32:46.949Z,967.73
2023-01-17T01:33:46.943Z,967.78
2023-01-17T01:34:46.928Z,967.72
2023-01-17T01:35:46.942Z,967.84
2023-01-17T01:36:46.922Z,967.91
2023-01-17T01:37:46.899Z,967.86
2023-01-17T01:38:46.882Z,967.76
2023-01-17T01:39:46.877Z,967.90
2023-01-17T01:40:46.882Z,967.89
2023-01-17T01:41:46.878Z,967.93
2023-01-17T01:42:46.840Z,967.91
2023-01-17T01:43:46.903Z,967.89
2023-01-17T01:44:46.820Z,967.92
2023-01-17T01:45:46.851Z,967.98
2023-01-17T01:46:46.808Z,967.88
2023-01-17T01:47:46.807Z,967.87
2023-01-17T01:48:46.778Z,967.92
2023-01-17T01:49:46.768Z,967.93
2023-01-17T01:50:46.759Z,968.08
2023-01-17T01:51:46.749Z,968.02
2023-01-17T01:52:46.759Z,967.97
2023-01-17T01:53:46.728Z,968.01
2023-01-17T01:54:46.722Z,968.01
2023-01-17T01:55:46.704Z,968.06
2023-01-17T01:56:46.692Z,968.11
2023-01-17T01:57:46.688Z,968.03
2023-01-17T01:58:46.686Z,968.14
2023-01-17T01:59:46.658Z,968.04
2023-01-17T02:00:46.764Z,968.06
2023-01-17T02:01:46.711Z,968.15
2023-01-17T02:02:46.627Z,968.18
2023-01-17T02:03:46.691Z,968.19
2023-01-17T02:04:46.597Z,968.20
2023-01-17T02:05:46.607Z,968.24
2023-01-17T02:06:46.590Z,968.17
2023-01-17T02:07:46.583Z,968.17
2023-01-17T02:08:46.570Z,968.23
2023-01-17T02:09:46.589Z,968.21
2023-01-17T02:10:46.559Z,968.27
2023-01-17T02:11:46.525Z,968.29
2023-01-17T02:12:46.526Z,968.26
2023-01-17T02:13:46.513Z,968.19
2023-01-17T02:14:46.526Z,968.29
2023-01-17T02:15:46.486Z,968.38
2023-01-17T02:16:46.548Z,968.27
2023-01-17T02:17:46.473Z,968.35
2023-01-17T02:18:46.446Z,968.37
2023-01-17T02:19:46.446Z,968.31
2023-01-17T02:20:46.448Z,968.35
2023-01-17T02:21:46.416Z,968.41
2023-01-17T02:22:46.410Z,968.46
2023-01-17T02:23:46.410Z,968.44
2023-01-17T02:24:46.387Z,968.48
2023-01-17T02:25:46.421Z,968.51
2023-01-17T02:26:46.370Z,968.50
2023-01-17T02:27:46.347Z,968.47
2023-01-17T02:28:46.344Z,968.52
2023-01-17T02:29:53.411Z,968.45
2023-01-17T02:30:46.319Z,968.46
2023-01-17T02:31:46.404Z,968.48
2023-01-17T02:32:46.300Z,968.49
2023-01-17T02:33:46.296Z,968.43
2023-01-17T02:34:46.278Z,968.38
2023-01-17T02:35:46.269Z,968.41
2023-01-17T02:36:46.248Z,968.51
2023-01-17T02:37:46.269Z,968.52
2023-01-17T02:38:46.227Z,968.54
2023-01-17T02:39:46.217Z,968.57
2023-01-17T02:40:46.207Z,968.58
2023-01-17T02:41:46.197Z,968.60
2023-01-17T02:42:46.181Z,968.61
2023-01-17T02:43:46.213Z,968.60
2023-01-17T02:44:46.163Z,968.70
2023-01-17T02:45:46.172Z,968.65
2023-01-17T02:46:46.139Z,968.68
2023-01-17T02:47:46.128Z,968.66
2023-01-17T02:48:46.117Z,968.70
2023-01-17T02:49:46.128Z,968.80
2023-01-17T02:50:46.096Z,968.71
2023-01-17T02:51:46.088Z,968.82
2023-01-17T02:52:46.077Z,968.76
2023-01-17T02:53:46.075Z,968.76
2023-01-17T02:54:46.050Z,968.88
2023-01-17T02:55:46.057Z,968.85
2023-01-17T02:56:46.036Z,968.74
2023-01-17T02:57:46.016Z,968.88
2023-01-17T02:58:46.006Z,968.96
2023-01-17T02:59:45.998Z,968.86
2023-01-17T03:00:46.062Z,968.88
2023-01-17T03:01:46.081Z,968.85
2023-01-17T03:02:46.038Z,968.89
2023-01-17T03:03:45.957Z,968.92
2023-01-17T03:04:45.992Z,968.91
2023-01-17T03:05:45.927Z,968.94
2023-01-17T03:06:45.925Z,968.97
2023-01-17T03:07:45.908Z,968.97
2023-01-17T03:08:45.894Z,969.08
2023-01-17T03:09:45.906Z,968.99
2023-01-17T03:10:45.876Z,968.96
2023-01-17T03:11:45.886Z,969.01
2023-01-17T03:12:45.847Z,969.12
2023-01-17T03:13:45.835Z,969.13
2023-01-17T03:14:45.823Z,969.06
2023-01-17T03:15:45.834Z,969.11
2023-01-17T03:16:45.828Z,969.14
2023-01-17T03:17:45.815Z,969.12
2023-01-17T03:18:45.785Z,969.13
2023-01-17T03:19:45.774Z,969.18
2023-01-17T03:20:45.770Z,969.17
2023-01-17T03:21:45.764Z,969.24
2023-01-17T03:22:45.740Z,969.22
2023-01-17T03:23:45.746Z,969.28
2023-01-17T03:24:45.722Z,969.26
2023-01-17T03:25:45.744Z,969.28
2023-01-17T03:26:45.693Z,969.36
2023-01-17T03:27:45.688Z,969.31
2023-01-17T03:28:45.705Z,969.32
2023-01-17T03:29:45.663Z,969.35
2023-01-17T03:30:45.676Z,969.33
2023-01-17T03:31:45.633Z,969.35
2023-01-17T03:32:45.622Z,969.35
2023-01-17T03:33:45.613Z,969.31
2023-01-17T03:34:45.634Z,969.34
2023-01-17T03:35:45.632Z,969.40
2023-01-17T03:36:45.575Z,969.39
2023-01-17T03:37:45.566Z,969.34
2023-01-17T03:38:45.554Z,969.35
2023-01-17T03:39:45.550Z,969.38
2023-01-17T03:40:45.554Z,969.33
2023-01-17T03:41:45.556Z,969.40
2023-01-17T03:42:45.502Z,969.36
2023-01-17T03:43:45.504Z,969.46
2023-01-17T03:44:45.510Z,969.38
2023-01-17T03:45:45.551Z,969.35
2023-01-17T03:46:45.523Z,969.45
2023-01-17T03:47:45.452Z,969.41
2023-01-17T03:48:45.443Z,969.47
2023-01-17T03:49:45.433Z,969.49
2023-01-17T03:50:45.438Z,969.52
2023-01-17T03:51:45.442Z,969.43
2023-01-17T03:52:45.401Z,969.51
2023-01-17T03:53:45.383Z,969.52
2023-01-17T03:54:45.387Z,969.51
2023-01-17T03:55:45.363Z,969.49
2023-01-17T03:56:45.353Z,969.55
2023-01-17T03:57:45.365Z,969.59
2023-01-17T03:58:45.350Z,969.59
2023-01-17T03:59:45.343Z,969.49
2023-01-17T04:00:45.395Z,969.58
2023-01-17T04:01:45.455Z,969.57
2023-01-17T04:02:45.367Z,969.48
2023-01-17T04:03:45.297Z,969.58
2023-01-17T04:04:45.275Z,969.61
2023-01-17T04:05:45.251Z,969.54
2023-01-17T04:06:45.250Z,969.57
2023-01-17T04:07:45.231Z,969.55
2023-01-17T04:08:45.221Z,969.52
2023-01-17T04:09:45.234Z,969.52
2023-01-17T04:10:45.200Z,969.46
2023-01-17T04:11:45.184Z,969.56
2023-01-17T04:12:45.181Z,969.48
2023-01-17T04:13:45.164Z,969.50
2023-01-17T04:14:45.171Z,969.55
2023-01-17T04:15:45.167Z,969.46
2023-01-17T04:16:45.195Z,969.48
2023-01-17T04:17:45.111Z,969.55
2023-01-17T04:18:45.130Z,969.52
2023-01-17T04:19:45.112Z,969.51
2023-01-17T04:20:45.099Z,969.51
2023-01-17T04:21:45.082Z,969.59
2023-01-17T04:22:45.060Z,969.58
2023-01-17T04:23:45.060Z,969.56
2023-01-17T04:24:45.062Z,969.66
2023-01-17T04:25:45.052Z,969.58
2023-01-17T04:26:45.020Z,969.65
2023-01-17T04:27:45.000Z,969.69
2023-01-17T04:28:44.991Z,969.77
2023-01-17T04:29:46.725Z,969.78
2023-01-17T04:30:45.072Z,969.84
2023-01-17T04:31:45.044Z,969.78
2023-01-17T04:32:44.950Z,969.81
2023-01-17T04:33:44.959Z,969.78
2023-01-17T04:34:44.929Z,969.87
2023-01-17T04:35:44.921Z,969.84
2023-01-17T04:36:44.911Z,969.85
2023-01-17T04:37:44.920Z,969.75
2023-01-17T04:38:44.891Z,969.91
2023-01-17T04:39:44.879Z,969.85
2023-01-17T04:40:44.860Z,969.87
2023-01-17T04:41:44.848Z,969.95
2023-01-17T04:42:44.871Z,969.99
2023-01-17T04:43:44.838Z,969.97
2023-01-17T04:44:44.822Z,969.97
2023-01-17T04:45:44.808Z,969.97
2023-01-17T04:46:44.794Z,970.01
2023-01-17T04:47:44.779Z,970.07
2023-01-17T04:48:44.767Z,970.01
2023-01-17T04:49:44.789Z,970.07
2023-01-17T04:50:44.750Z,970.11
2023-01-17T04:51:44.748Z,970.12
2023-01-17T04:52:44.737Z,970.09
2023-01-17T04:53:44.764Z,970.03
2023-01-17T04:54:44.720Z,970.11
2023-01-17T04:55:44.798Z,970.10
2023-01-17T04:56:44.687Z,970.13
2023-01-17T04:57:44.677Z,970.15
2023-01-17T04:58:44.667Z,970.12
2023-01-17T04:59:44.667Z,970.10
2023-01-17T05:00:44.658Z,970.17
2023-01-17T05:01:44.678Z,970.13
2023-01-17T05:02:44.698Z,970.12
2023-01-17T05:03:44.608Z,970.08
2023-01-17T05:04:44.586Z,970.12
2023-01-17T05:05:44.702Z,970.17
2023-01-17T05:06:44.593Z,970.17
2023-01-17T05:07:44.555Z,970.21
2023-01-17T05:08:44.547Z,970.21
2023-01-17T05:09:44.535Z,970.10
2023-01-17T05:10:44.526Z,970.17
2023-01-17T05:11:44.536Z,970.15
2023-01-17T05:12:44.505Z,970.20
2023-01-17T05:13:44.485Z,970.23
2023-01-17T05:14:44.475Z,970.22
2023-01-17T05:15:44.478Z,970.26
2023-01-17T05:16:44.465Z,970.20
2023-01-17T05:17:44.520Z,970.33
2023-01-17T05:18:44.435Z,970.32
2023-01-17T05:19:44.434Z,970.33
2023-01-17T05:20:44.415Z,970.33
2023-01-17T05:21:44.402Z,970.36
2023-01-17T05:22:44.384Z,970.32
2023-01-17T05:23:44.393Z,970.34
2023-01-17T05:24:44.365Z,970.41
2023-01-17T05:25:44.522Z,970.45
2023-01-17T05:26:44.344Z,970.47
2023-01-17T05:27:44.335Z,970.46
2023-01-17T05:28:44.353Z,970.49
2023-01-17T05:29:44.305Z,970.49
2023-01-17T05:30:44.369Z,970.53
2023-01-17T05:31:44.283Z,970.48
2023-01-17T05:32:44.282Z,970.51
2023-01-17T05:33:44.265Z,970.52
2023-01-17T05:34:44.299Z,970.58
2023-01-17T05:35:44.243Z,970.59
2023-01-17T05:36:44.241Z,970.62
2023-01-17T05:37:44.255Z,970.61
2023-01-17T05:38:44.213Z,970.59
2023-01-17T05:39:44.197Z,970.59
2023-01-17T05:40:44.212Z,970.62
2023-01-17T05:41:44.173Z,970.59
2023-01-17T05:42:44.162Z,970.65
2023-01-17T05:43:44.152Z,970.68
2023-01-17T05:44:44.150Z,970.68
2023-01-17T05:45:44.164Z,970.64
2023-01-17T05:46:44.138Z,970.66
2023-01-17T05:47:44.115Z,970.75
2023-01-17T05:48:44.112Z,970.69
2023-01-17T05:49:45.930Z,970.71
2023-01-17T05:50:44.081Z,970.69
2023-01-17T05:51:44.083Z,970.70
2023-01-17T05:52:44.073Z,970.73
2023-01-17T05:53:44.043Z,970.69
2023-01-17T05:54:44.045Z,970.70
2023-01-17T05:55:44.027Z,970.67
2023-01-17T05:56:44.027Z,970.65
2023-01-17T05:57:44.023Z,970.76
2023-01-17T05:58:43.992Z,970.66
2023-01-17T05:59:43.986Z,970.64
2023-01-17T06:00:43.972Z,970.74
2023-01-17T06:01:43.962Z,970.73
2023-01-17T06:02:43.989Z,970.72
2023-01-17T06:03:43.952Z,970.69
2023-01-17T06:04:43.981Z,970.66
2023-01-17T06:05:43.916Z,970.67
2023-01-17T06:06:43.900Z,970.69
2023-01-17T06:07:43.890Z,970.65
2023-01-17T06:08:43.903Z,970.70
2023-01-17T06:09:43.871Z,970.65
2023-01-17T06:10:43.859Z,970.66
2023-01-17T06:11:43.844Z,970.75
2023-01-17T06:12:43.840Z,970.72
2023-01-17T06:13:43.823Z,970.67
2023-01-17T06:14:43.841Z,970.72
2023-01-17T06:15:43.842Z,970.75
2023-01-17T06:16:43.792Z,970.77
2023-01-17T06:17:43.834Z,970.71
2023-01-17T06:18:43.782Z,970.73
2023-01-17T06:19:43.759Z,970.73
2023-01-17T06:20:43.776Z,970.77
2023-01-17T06:21:43.739Z,970.76
2023-01-17T06:22:43.731Z,970.70
2023-01-17T06:23:43.713Z,970.78
2023-01-17T06:24:43.707Z,970.70
2023-01-17T06:25:43.737Z,970.68
2023-01-17T06:26:43.708Z,970.75
2023-01-17T06:27:43.673Z,970.72
2023-01-17T06:28:43.658Z,970.75
2023-01-17T06:29:43.648Z,970.73
2023-01-17T06:30:43.654Z,970.72
2023-01-17T06:31:43.636Z,970.75
2023-01-17T06:32:43.628Z,970.79
2023-01-17T06:33:43.607Z,970.74
2023-01-17T06:34:43.604Z,970.71
2023-01-17T06:35:43.620Z,970.79
2023-01-17T06:36:43.577Z,970.77
2023-01-17T06:37:43.607Z,970.81
2023-01-17T06:38:43.548Z,970.88
2023-01-17T06:39:44.115Z,970.87
2023-01-17T06:40:43.540Z,970.93
2023-01-17T06:41:43.517Z,970.99
2023-01-17T06:42:43.519Z,971.03
2023-01-17T06:43:43.508Z,971.02
2023-01-17T06:44:43.496Z,971.10
2023-01-17T06:45:43.486Z,971.09
2023-01-17T06:46:43.554Z,971.07
2023-01-17T06:47:43.450Z,971.14
2023-01-17T06:48:43.467Z,971.15
2023-01-17T06:49:43.425Z,971.12
2023-01-17T06:50:43.492Z,971.15
2023-01-17T06:51:43.785Z,971.14
2023-01-17T06:52:43.396Z,971.18
2023-01-17T06:53:43.387Z,971.14
2023-01-17T06:54:43.386Z,971.11
2023-01-17T06:55:43.365Z,971.17
2023-01-17T06:56:43.354Z,971.10
2023-01-17T06:57:43.335Z,971.11
2023-01-17T06:58:43.325Z,971.11
2023-01-17T06:59:43.345Z,971.05
2023-01-17T07:00:43.348Z,971.12
2023-01-17T07:01:43.319Z,971.11
2023-01-17T07:02:43.285Z,971.09
2023-01-17T07:03:43.351Z,971.10
2023-01-17T07:04:43.265Z,971.10
2023-01-17T07:05:43.267Z,971.09
2023-01-17T07:06:43.243Z,971.06
2023-01-17T07:07:43.225Z,971.11
2023-01-17T07:08:43.235Z,971.03
2023-01-17T07:09:43.204Z,970.98
2023-01-17T07:10:43.219Z,971.01
2023-01-17T07:11:43.183Z,971.06
2023-01-17T07:12:43.173Z,971.05
2023-01-17T07:13:43.171Z,971.02
2023-01-17T07:14:43.154Z,971.05
2023-01-17T07:15:43.155Z,971.05
2023-01-17T07:16:43.149Z,971.05
2023-01-17T07:17:43.113Z,971.12
2023-01-17T07:18:43.103Z,971.10
2023-01-17T07:19:43.166Z,971.05
2023-01-17T07:20:43.082Z,971.01
2023-01-17T07:21:43.116Z,971.03
2023-01-17T07:22:43.064Z,971.05
2023-01-17T07:23:43.051Z,971.08
2023-01-17T07:24:43.051Z,971.05
2023-01-17T07:25:43.039Z,971.03
2023-01-17T07:26:43.026Z,971.03
2023-01-17T07:27:43.023Z,971.04
2023-01-17T07:28:43.002Z,971.04
2023-01-17T07:29:42.984Z,971.06
2023-01-17T07:30:42.972Z,970.99
2023-01-17T07:31:42.990Z,970.99
2023-01-17T07:32:42.973Z,971.04
2023-01-17T07:33:42.942Z,970.99
2023-01-17T07:34:42.943Z,971.01
2023-01-17T07:35:42.934Z,971.07
2023-01-17T07:36:42.912Z,971.01
2023-01-17T07:37:42.891Z,970.98
2023-01-17T07:38:42.967Z,970.96
2023-01-17T07:39:42.895Z,971.05
2023-01-17T07:40:42.863Z,971.05
2023-01-17T07:41:42.860Z,971.08
2023-01-17T07:42:42.840Z,971.08
2023-01-17T07:43:42.831Z,971.04
2023-01-17T07:44:42.842Z,971.07
2023-01-17T07:45:42.813Z,971.02
2023-01-17T07:46:42.883Z,971.10
2023-01-17T07:47:42.796Z,971.05
2023-01-17T07:48:42.785Z,971.01
2023-01-17T07:49:42.762Z,971.01
2023-01-17T07:50:42.773Z,970.98
2023-01-17T07:51:42.744Z,970.96
2023-01-17T07:52:42.742Z,970.98
2023-01-17T07:53:42.722Z,970.98
2023-01-17T07:54:42.711Z,970.90
2023-01-17T07:55:42.780Z,970.93
2023-01-17T07:56:42.692Z,970.92
2023-01-17T07:57:42.672Z,970.97
2023-01-17T07:58:42.669Z,970.92
2023-01-17T07:59:42.659Z,970.93
2023-01-17T08:00:42.693Z,970.91
2023-01-17T08:01:42.716Z,970.91
2023-01-17T08:02:42.619Z,970.86
2023-01-17T08:03:42.662Z,970.83
2023-01-17T08:04:42.609Z,970.81
2023-01-17T08:05:42.660Z,970.80
2023-01-17T08:06:42.605Z,970.79
2023-01-17T08:07:42.568Z,970.75
2023-01-17T08:08:42.548Z,970.74
2023-01-17T08:09:42.554Z,970.78
2023-01-17T08:10:42.529Z,970.78
2023-01-17T08:11:42.538Z,970.65
2023-01-17T08:12:42.528Z,970.65
2023-01-17T08:13:42.506Z,970.60
2023-01-17T08:14:42.487Z,970.69
2023-01-17T08:15:42.479Z,970.59
2023-01-17T08:16:42.533Z,970.59
2023-01-17T08:17:42.457Z,970.56
2023-01-17T08:18:42.458Z,970.53
2023-01-17T08:19:42.434Z,970.52
2023-01-17T08:20:42.418Z,970.52
2023-01-17T08:21:42.408Z,970.48
2023-01-17T08:22:42.404Z,970.46
2023-01-17T08:23:42.387Z,970.41
2023-01-17T08:24:42.388Z,970.45
2023-01-17T08:25:42.367Z,970.42
2023-01-17T08:26:42.348Z,970.39
2023-01-17T08:27:42.343Z,970.44
2023-01-17T08:28:42.346Z,970.47
2023-01-17T08:29:42.346Z,970.38
2023-01-17T08:30:42.308Z,970.41
2023-01-17T08:31:42.323Z,970.45
2023-01-17T08:32:42.313Z,970.36
2023-01-17T08:33:42.286Z,970.38
2023-01-17T08:34:42.258Z,970.39
2023-01-17T08:35:42.276Z,970.40
2023-01-17T08:36:42.237Z,970.34
2023-01-17T08:37:42.229Z,970.39
2023-01-17T08:38:42.223Z,970.35
2023-01-17T08:39:42.262Z,970.34
2023-01-17T08:40:43.181Z,970.34
2023-01-17T08:41:42.237Z,970.35
2023-01-17T08:42:42.167Z,970.31
2023-01-17T08:43:42.171Z,970.38
2023-01-17T08:44:42.146Z,970.35
2023-01-17T08:45:42.170Z,970.33
2023-01-17T08:46:42.132Z,970.33
2023-01-17T08:47:42.137Z,970.33
2023-01-17T08:48:42.106Z,970.36
2023-01-17T08:49:42.097Z,970.31
2023-01-17T08:50:42.087Z,970.34
2023-01-17T08:51:42.068Z,970.29
2023-01-17T08:52:42.076Z,970.32
2023-01-17T08:53:42.058Z,970.28
2023-01-17T08:54:42.040Z,970.29
2023-01-17T08:55:42.051Z,970.27
2023-01-17T08:56:42.009Z,970.26
2023-01-17T08:57:42.006Z,970.28
2023-01-17T08:58:42.013Z,970.23
2023-01-17T08:59:41.987Z,970.17
2023-01-17T09:00:41.984Z,970.24
2023-01-17T09:01:42.221Z,970.19
2023-01-17T09:02:41.950Z,970.18
2023-01-17T09:03:41.970Z,970.18
2023-01-17T09:04:41.976Z,970.10
2023-01-17T09:05:41.925Z,970.12
2023-01-17T09:06:41.896Z,970.14
2023-01-17T09:07:41.915Z,970.10
2023-01-17T09:08:41.878Z,970.17
2023-01-17T09:09:41.878Z,970.09
2023-01-17T09:10:41.878Z,970.12
2023-01-17T09:11:41.876Z,970.12
2023-01-17T09:12:41.837Z,970.10
2023-01-17T09:13:41.828Z,970.13
2023-01-17T09:14:41.830Z,970.11
2023-01-17T09:15:48.870Z,970.12
2023-01-17T09:16:41.821Z,970.11
2023-01-17T09:17:41.809Z,970.12
2023-01-17T09:18:41.785Z,970.13
2023-01-17T09:19:42.360Z,970.06
2023-01-17T09:20:41.751Z,970.09
2023-01-17T09:21:41.754Z,970.15
2023-01-17T09:22:41.724Z,970.05
2023-01-17T09:23:41.717Z,970.08
2023-01-17T09:24:41.698Z,970.10
2023-01-17T09:25:41.758Z,970.10
2023-01-17T09:26:41.695Z,970.19
2023-01-17T09:27:41.664Z,970.11
2023-01-17T09:28:41.654Z,970.11
2023-01-17T09:29:41.652Z,970.18
2023-01-17T09:30:41.668Z,970.16
2023-01-17T09:31:41.630Z,970.21
2023-01-17T09:32:41.627Z,970.24
2023-01-17T09:33:41.609Z,970.22
2023-01-17T09:34:41.589Z,970.26
2023-01-17T09:35:41.585Z,970.21
2023-01-17T09:36:41.565Z,970.15
2023-01-17T09:37:41.556Z,970.25
2023-01-17T09:38:41.570Z,970.20
2023-01-17T09:39:41.535Z,970.26
2023-01-17T09:40:41.516Z,970.27
2023-01-17T09:41:41.506Z,970.35
2023-01-17T09:42:41.497Z,970.36
2023-01-17T09:43:41.485Z,970.42
2023-01-17T09:44:41.488Z,970.44
2023-01-17T09:45:41.486Z,970.50
2023-01-17T09:46:41.445Z,970.47
2023-01-17T09:47:41.445Z,970.52
2023-01-17T09:48:41.426Z,970.57
2023-01-17T09:49:41.445Z,970.56
2023-01-17T09:50:41.414Z,970.53
2023-01-17T09:51:41.403Z,970.54
2023-01-17T09:52:41.385Z,970.63
2023-01-17T09:53:41.376Z,970.63
2023-01-17T09:54:41.368Z,970.65
2023-01-17T09:55:41.378Z,970.64
2023-01-17T09:56:41.338Z,970.64
2023-01-17T09:57:41.325Z,970.76
2023-01-17T09:58:41.322Z,970.76
2023-01-17T09:59:44.337Z,970.82
2023-01-17T10:00:41.309Z,970.76
2023-01-17T10:01:41.458Z,970.77
2023-01-17T10:02:41.373Z,970.80
2023-01-17T10:03:41.416Z,970.78
2023-01-17T10:04:41.281Z,970.77
2023-01-17T10:05:41.246Z,970.78
2023-01-17T10:06:41.226Z,970.75
2023-01-17T10:07:41.236Z,970.71
2023-01-17T10:08:41.211Z,970.66
2023-01-17T10:09:41.194Z,970.70
2023-01-17T10:10:41.189Z,970.73
2023-01-17T10:11:41.175Z,970.72
2023-01-17T10:12:41.160Z,970.73
2023-01-17T10:13:41.164Z,970.75
2023-01-17T10:14:41.135Z,970.73
2023-01-17T10:15:41.134Z,970.72
2023-01-17T10:16:41.149Z,970.69
2023-01-17T10:17:41.146Z,970.68
2023-01-17T10:18:41.084Z,970.73
2023-01-17T10:19:41.094Z,970.64
2023-01-17T10:20:41.071Z,970.72
2023-01-17T10:21:41.054Z,970.75
2023-01-17T10:22:41.043Z,970.76
2023-01-17T10:23:41.037Z,970.73
2023-01-17T10:24:41.045Z,970.74
2023-01-17T10:25:41.018Z,970.75
2023-01-17T10:26:40.994Z,970.76
2023-01-17T10:27:40.998Z,970.69
2023-01-17T10:28:40.975Z,970.69
2023-01-17T10:29:40.964Z,970.71
2023-01-17T10:30:41.082Z,970.77
2023-01-17T10:31:40.950Z,970.79
2023-01-17T10:32:40.934Z,970.75
2023-01-17T10:33:40.914Z,970.71
2023-01-17T10:34:40.902Z,970.76
2023-01-17T10:35:40.907Z,970.79
2023-01-17T10:36:40.917Z,970.75
2023-01-17T10:37:40.874Z,970.75
2023-01-17T10:38:41.807Z,970.68
2023-01-17T10:39:40.843Z,970.73
2023-01-17T10:40:40.837Z,970.75
2023-01-17T10:41:40.822Z,970.71
2023-01-17T10:42:40.823Z,970.75
2023-01-17T10:43:40.805Z,970.79
2023-01-17T10:44:40.807Z,970.76
2023-01-17T10:45:40.783Z,970.75
2023-01-17T10:46:40.762Z,970.70
2023-01-17T10:47:40.804Z,970.66
2023-01-17T10:48:40.742Z,970.70
2023-01-17T10:49:40.733Z,970.70
2023-01-17T10:50:40.733Z,970.69
2023-01-17T10:51:40.717Z,970.76
2023-01-17T10:52:40.692Z,970.78
2023-01-17T10:53:40.703Z,970.72
2023-01-17T10:54:40.677Z,970.76
2023-01-17T10:55:40.673Z,970.74
2023-01-17T10:56:40.659Z,970.74
2023-01-17T10:57:40.643Z,970.76
2023-01-17T10:58:40.653Z,970.73
2023-01-17T10:59:40.622Z,970.73
2023-01-17T11:00:40.604Z,970.78
2023-01-17T11:01:40.677Z,970.74
2023-01-17T11:02:40.596Z,970.71
2023-01-17T11:03:40.584Z,970.74
2023-01-17T11:04:40.588Z,970.77
2023-01-17T11:05:40.562Z,970.76
2023-01-17T11:06:53.298Z,970.75
2023-01-17T11:07:41.534Z,970.80
2023-01-17T11:08:40.517Z,970.77
2023-01-17T11:09:40.502Z,970.78
2023-01-17T11:10:40.522Z,970.82
2023-01-17T11:11:40.491Z,970.83
2023-01-17T11:12:40.471Z,970.79
2023-01-17T11:13:40.465Z,970.77
2023-01-17T11:14:40.456Z,970.78
2023-01-17T11:15:40.482Z,970.78
2023-01-17T11:16:40.442Z,970.80
2023-01-17T11:17:40.422Z,970.83
2023-01-17T11:18:40.410Z,970.78
2023-01-17T11:19:40.396Z,970.86
2023-01-17T11:20:40.390Z,970.86
2023-01-17T11:21:40.413Z,970.86
2023-01-17T11:22:40.364Z,970.75
2023-01-17T11:23:40.351Z,970.81
2023-01-17T11:24:40.331Z,970.80
2023-01-17T11:25:40.373Z,970.81
2023-01-17T11:26:40.311Z,970.78
2023-01-17T11:27:40.324Z,970.79
2023-01-17T11:28:40.291Z,970.81
2023-01-17T11:29:40.284Z,970.77
2023-01-17T11:30:40.291Z,970.73
2023-01-17T11:31:40.261Z,970.69
2023-01-17T11:32:40.242Z,970.71
2023-01-17T11:33:40.262Z,970.73
2023-01-17T11:34:40.224Z,970.70
2023-01-17T11:35:40.242Z,970.68
2023-01-17T11:36:40.199Z,970.65
2023-01-17T11:37:40.199Z,970.65
2023-01-17T11:38:40.179Z,970.60
2023-01-17T11:39:40.195Z,970.64
2023-01-17T11:40:40.159Z,970.64
2023-01-17T11:41:40.141Z,970.61
2023-01-17T11:42:40.131Z,970.59
2023-01-17T11:43:40.121Z,970.55
2023-01-17T11:44:40.116Z,970.58
2023-01-17T11:45:40.548Z,970.56
2023-01-17T11:46:40.141Z,970.54
2023-01-17T11:47:40.070Z,970.54
2023-01-17T11:48:40.067Z,970.53
2023-01-17T11:49:40.073Z,970.51
2023-01-17T11:50:40.040Z,970.42
2023-01-17T11:51:40.054Z,970.47
2023-01-17T11:52:40.016Z,970.48
2023-01-17T11:53:40.035Z,970.46
2023-01-17T11:54:40.007Z,970.51
2023-01-17T11:55:39.988Z,970.48
2023-01-17T11:56:39.969Z,970.45
2023-01-17T11:57:39.971Z,970.48
2023-01-17T11:58:39.950Z,970.48
2023-01-17T11:59:39.942Z,970.36
2023-01-17T12:00:39.929Z,970.36
2023-01-17T12:01:39.923Z,970.28
2023-01-17T12:02:39.931Z,970.28
2023-01-17T12:03:39.962Z,970.29
2023-01-17T12:04:39.907Z,970.28
2023-01-17T12:05:39.872Z,970.37
2023-01-17T12:06:56.229Z,970.36
2023-01-17T12:07:40.869Z,970.30
2023-01-17T12:08:39.829Z,970.33
2023-01-17T12:09:39.829Z,970.31
2023-01-17T12:10:39.811Z,970.32
2023-01-17T12:11:39.799Z,970.38
2023-01-17T12:12:39.817Z,970.33
2023-01-17T12:13:39.814Z,970.34
2023-01-17T12:14:39.768Z,970.27
2023-01-17T12:15:39.770Z,970.29
2023-01-17T12:16:39.741Z,970.36
2023-01-17T12:17:39.743Z,970.28
2023-01-17T12:18:39.723Z,970.28
2023-01-17T12:19:39.731Z,970.28
2023-01-17T12:20:39.689Z,970.25
2023-01-17T12:21:39.687Z,970.24
2023-01-17T12:22:39.669Z,970.23
2023-01-17T12:23:39.659Z,970.20
2023-01-17T12:24:39.648Z,970.21
2023-01-17T12:25:39.664Z,970.23
2023-01-17T12:26:39.632Z,970.26
2023-01-17T12:27:40.049Z,970.21
2023-01-17T12:28:39.603Z,970.23